createdAt,value
2019-03-29T00:00:07.627Z,17.55
2019-03-29T00:02:37.050Z,17.06
2019-03-29T00:05:06.308Z,17.14
2019-03-29T00:07:39.978Z,17.06
2019-03-29T00:10:07.211Z,17.10
2019-03-29T00:12:36.348Z,17.05
2019-03-29T00:15:05.901Z,16.84
2019-03-29T00:17:35.078Z,17.03
2019-03-29T00:20:06.209Z,16.81
2019-03-29T00:22:35.282Z,16.54
2019-03-29T00:25:04.554Z,16.54
2019-03-29T00:27:33.700Z,16.47
2019-03-29T00:30:02.870Z,16.50
2019-03-29T00:32:32.258Z,16.72
2019-03-29T00:35:01.402Z,16.67
2019-03-29T00:37:30.517Z,16.67
2019-03-29T00:39:59.910Z,16.73
2019-03-29T00:42:29.042Z,17.08
2019-03-29T00:44:58.169Z,16.98
2019-03-29T00:47:27.644Z,17.24
2019-03-29T00:49:56.824Z,17.26
2019-03-29T00:52:26.021Z,17.64
2019-03-29T00:54:55.410Z,17.41
2019-03-29T00:57:25.294Z,17.41
2019-03-29T00:59:54.444Z,17.10
2019-03-29T01:02:24.409Z,17.10
2019-03-29T01:04:54.876Z,17.06
2019-03-29T01:07:24.138Z,16.86
2019-03-29T01:09:53.275Z,17.15
2019-03-29T01:12:22.673Z,17.15
2019-03-29T01:14:52.612Z,15.77
2019-03-29T01:17:22.030Z,16.87
2019-03-29T01:19:51.248Z,16.96
2019-03-29T01:22:20.425Z,16.96
2019-03-29T01:24:49.889Z,16.93
2019-03-29T01:27:19.271Z,16.93
2019-03-29T01:29:48.570Z,16.72
2019-03-29T01:32:17.810Z,16.33
2019-03-29T01:34:47.692Z,17.36
2019-03-29T01:37:16.950Z,17.36
2019-03-29T01:39:46.361Z,17.32
2019-03-29T01:42:15.526Z,17.41
2019-03-29T01:44:44.965Z,17.05
2019-03-29T01:47:14.427Z,16.86
2019-03-29T01:49:43.607Z,16.86
2019-03-29T01:52:12.795Z,16.99
2019-03-29T01:54:41.959Z,17.12
2019-03-29T01:57:11.172Z,17.19
2019-03-29T01:59:40.554Z,16.49
2019-03-29T02:02:09.949Z,16.49
2019-03-29T02:04:39.109Z,16.98
2019-03-29T02:07:08.937Z,16.98
2019-03-29T02:09:38.344Z,16.48
2019-03-29T02:12:07.584Z,16.91
2019-03-29T02:14:37.071Z,16.91
2019-03-29T02:17:06.199Z,16.99
2019-03-29T02:19:35.361Z,16.92
2019-03-29T02:22:04.568Z,16.67
2019-03-29T02:24:34.072Z,16.61
2019-03-29T02:27:03.759Z,16.61
2019-03-29T02:29:32.885Z,16.56
2019-03-29T02:32:02.037Z,16.38
2019-03-29T02:34:32.169Z,16.38
2019-03-29T02:37:02.211Z,15.86
2019-03-29T02:39:31.774Z,15.86
2019-03-29T02:42:00.944Z,15.94
2019-03-29T02:44:30.306Z,15.84
2019-03-29T02:46:59.791Z,15.19
2019-03-29T02:49:28.957Z,15.28
2019-03-29T02:51:58.123Z,14.88
2019-03-29T02:54:27.271Z,14.78
2019-03-29T02:56:56.444Z,14.61
2019-03-29T02:59:25.944Z,14.66
2019-03-29T03:01:55.805Z,14.53
2019-03-29T03:04:24.983Z,14.29
2019-03-29T03:06:54.168Z,14.15
2019-03-29T03:09:23.573Z,14.24
2019-03-29T03:11:52.767Z,14.24
2019-03-29T03:14:22.250Z,13.90
2019-03-29T03:16:51.522Z,14.29
2019-03-29T03:19:20.969Z,14.13
2019-03-29T03:21:50.380Z,13.94
2019-03-29T03:24:19.939Z,13.75
2019-03-29T03:26:49.369Z,13.53
2019-03-29T03:29:18.533Z,13.82
2019-03-29T03:31:47.677Z,13.89
2019-03-29T03:34:17.085Z,13.67
2019-03-29T03:36:46.225Z,13.52
2019-03-29T03:39:30.673Z,13.55
2019-03-29T03:41:46.466Z,13.47
2019-03-29T03:44:16.201Z,12.88
2019-03-29T03:46:45.376Z,12.94
2019-03-29T03:49:14.553Z,12.78
2019-03-29T03:51:43.849Z,13.02
2019-03-29T03:54:13.058Z,13.08
2019-03-29T03:56:42.735Z,13.12
2019-03-29T03:59:12.098Z,12.90
2019-03-29T04:01:41.298Z,12.46
2019-03-29T04:04:10.546Z,12.89
2019-03-29T04:06:39.896Z,12.96
2019-03-29T04:09:09.298Z,12.59
2019-03-29T04:11:38.481Z,12.92
2019-03-29T04:14:07.905Z,12.93
2019-03-29T04:16:37.081Z,12.22
2019-03-29T04:19:06.227Z,12.37
2019-03-29T04:21:35.357Z,12.45
2019-03-29T04:24:04.733Z,12.51
2019-03-29T04:26:33.892Z,12.66
2019-03-29T04:29:05.329Z,12.61
2019-03-29T04:31:34.865Z,12.59
2019-03-29T04:34:04.259Z,12.41
2019-03-29T04:36:34.144Z,12.23
2019-03-29T04:39:05.603Z,12.13
2019-03-29T04:41:34.733Z,12.27
2019-03-29T04:44:04.303Z,12.09
2019-03-29T04:46:33.434Z,12.26
2019-03-29T04:49:02.653Z,12.29
2019-03-29T04:51:31.829Z,12.53
2019-03-29T04:54:01.008Z,11.99
2019-03-29T04:56:30.642Z,12.27
2019-03-29T04:58:59.816Z,12.01
2019-03-29T05:01:28.978Z,11.75
2019-03-29T05:03:58.228Z,12.07
2019-03-29T05:06:27.719Z,12.11
2019-03-29T05:08:56.960Z,11.62
2019-03-29T05:11:26.131Z,11.87
2019-03-29T05:13:55.333Z,12.02
2019-03-29T05:16:24.540Z,12.00
2019-03-29T05:18:53.726Z,12.01
2019-03-29T05:21:22.893Z,11.55
2019-03-29T05:23:52.127Z,12.23
2019-03-29T05:26:21.289Z,11.70
2019-03-29T05:28:50.874Z,11.84
2019-03-29T05:31:20.019Z,12.10
2019-03-29T05:33:49.321Z,12.21
2019-03-29T05:36:18.470Z,12.06
2019-03-29T05:38:47.876Z,11.83
2019-03-29T05:41:17.278Z,12.19
2019-03-29T05:43:46.538Z,12.30
2019-03-29T05:46:16.508Z,12.18
2019-03-29T05:48:45.629Z,11.82
2019-03-29T05:51:14.859Z,12.25
2019-03-29T05:53:44.610Z,12.20
2019-03-29T05:56:14.811Z,12.36
2019-03-29T05:58:44.564Z,12.41
2019-03-29T06:01:13.943Z,12.13
2019-03-29T06:03:43.464Z,12.25
2019-03-29T06:06:12.588Z,12.37
2019-03-29T06:08:41.796Z,12.61
2019-03-29T06:11:11.196Z,12.76
2019-03-29T06:13:40.349Z,12.95
2019-03-29T06:16:09.496Z,12.78
2019-03-29T06:18:38.740Z,13.15
2019-03-29T06:21:07.887Z,12.05
2019-03-29T06:23:37.186Z,12.05
2019-03-29T06:26:06.502Z,12.27
2019-03-29T06:28:35.745Z,13.09
2019-03-29T06:31:05.238Z,13.07
2019-03-29T06:33:34.670Z,13.79
2019-03-29T06:36:05.448Z,14.08
2019-03-29T06:38:35.549Z,14.62
2019-03-29T06:41:04.760Z,17.24
2019-03-29T06:43:34.117Z,18.43
2019-03-29T06:46:03.576Z,19.43
2019-03-29T06:48:32.946Z,20.06
2019-03-29T06:51:02.378Z,20.58
2019-03-29T06:53:31.526Z,22.39
2019-03-29T06:56:00.934Z,22.94
2019-03-29T06:58:30.082Z,23.75
2019-03-29T07:00:59.292Z,24.57
2019-03-29T07:03:28.973Z,25.35
2019-03-29T07:05:58.248Z,27.08
2019-03-29T07:08:27.694Z,26.11
2019-03-29T07:10:56.819Z,26.81
2019-03-29T07:13:27.276Z,26.24
2019-03-29T07:15:56.432Z,26.35
2019-03-29T07:18:25.580Z,27.62
2019-03-29T07:20:55.134Z,28.96
2019-03-29T07:23:24.614Z,29.26
2019-03-29T07:25:56.399Z,28.78
2019-03-29T07:28:24.940Z,31.31
2019-03-29T07:30:54.389Z,31.42
2019-03-29T07:33:23.597Z,30.65
2019-03-29T07:35:52.984Z,29.65
2019-03-29T07:38:22.166Z,27.60
2019-03-29T07:40:51.363Z,30.73
2019-03-29T07:43:26.515Z,32.56
2019-03-29T07:45:55.682Z,31.98
2019-03-29T07:48:25.013Z,32.83
2019-03-29T07:50:54.408Z,28.75
2019-03-29T07:53:23.815Z,28.25
2019-03-29T07:55:53.701Z,30.11
2019-03-29T07:58:23.256Z,30.30
2019-03-29T08:00:52.461Z,31.73
2019-03-29T08:03:23.474Z,29.89
2019-03-29T08:05:53.227Z,30.86
2019-03-29T08:08:25.737Z,30.50
2019-03-29T08:10:54.279Z,28.80
2019-03-29T08:13:23.465Z,30.33
2019-03-29T08:15:52.927Z,29.43
2019-03-29T08:18:22.104Z,29.59
2019-03-29T08:20:51.582Z,30.95
2019-03-29T08:23:20.748Z,32.04
2019-03-29T08:25:50.072Z,32.09
2019-03-29T08:28:19.512Z,30.28
2019-03-29T08:30:48.639Z,30.65
2019-03-29T08:33:18.274Z,31.17
2019-03-29T08:35:47.607Z,29.62
2019-03-29T08:38:17.077Z,33.39
2019-03-29T08:40:46.309Z,32.40
2019-03-29T08:43:15.463Z,33.53
2019-03-29T08:45:44.652Z,31.46
2019-03-29T08:48:13.893Z,33.08
2019-03-29T08:50:43.074Z,34.60
2019-03-29T08:53:12.246Z,31.98
2019-03-29T08:55:46.010Z,31.80
2019-03-29T08:58:13.141Z,32.56
2019-03-29T09:00:42.641Z,33.93
2019-03-29T09:07:09.779Z,32.57
2019-03-29T09:09:39.309Z,31.84
2019-03-29T09:12:14.783Z,32.74
2019-03-29T09:14:40.760Z,30.79
2019-03-29T09:17:11.553Z,31.70
2019-03-29T09:19:40.824Z,33.05
2019-03-29T09:22:10.160Z,32.72
2019-03-29T09:24:39.605Z,33.15
2019-03-29T09:27:09.389Z,32.83
2019-03-29T09:29:38.864Z,33.87
2019-03-29T09:32:09.211Z,34.62
2019-03-29T09:34:40.595Z,33.31
2019-03-29T09:37:09.986Z,32.62
2019-03-29T09:39:39.668Z,32.99
2019-03-29T09:42:10.108Z,34.19
2019-03-29T09:44:39.701Z,34.16
2019-03-29T09:47:08.919Z,36.10
2019-03-29T09:49:38.993Z,35.75
2019-03-29T09:52:08.672Z,35.33
2019-03-29T09:54:37.966Z,34.63
2019-03-29T09:57:10.077Z,32.93
2019-03-29T09:59:39.780Z,33.31
2019-03-29T10:02:09.113Z,32.92
2019-03-29T10:04:38.354Z,33.31
2019-03-29T10:07:07.887Z,35.01
2019-03-29T10:09:39.635Z,35.83
2019-03-29T10:12:09.157Z,33.59
2019-03-29T10:14:38.492Z,34.89
2019-03-29T10:17:07.736Z,35.12
2019-03-29T10:19:39.237Z,32.11
2019-03-29T10:22:10.081Z,33.74
2019-03-29T10:24:39.660Z,35.67
2019-03-29T10:27:12.591Z,33.74
2019-03-29T10:29:46.887Z,34.35
2019-03-29T10:32:19.218Z,34.52
2019-03-29T10:34:52.730Z,32.08
2019-03-29T10:37:22.949Z,33.25
2019-03-29T10:39:52.516Z,32.84
2019-03-29T10:42:24.105Z,32.43
2019-03-29T10:44:53.711Z,32.23
2019-03-29T10:47:42.041Z,34.20
2019-03-29T10:50:01.861Z,33.50
2019-03-29T10:52:33.701Z,34.76
2019-03-29T10:55:09.282Z,34.26
2019-03-29T10:57:39.523Z,32.85
2019-03-29T11:00:13.192Z,33.13
2019-03-29T11:02:42.776Z,34.12
2019-03-29T11:05:12.185Z,32.56
2019-03-29T11:07:41.922Z,33.89
2019-03-29T11:10:15.235Z,33.21
2019-03-29T11:12:44.894Z,33.03
2019-03-29T11:15:14.298Z,32.12
2019-03-29T11:17:46.023Z,33.32
2019-03-29T11:20:18.514Z,32.93
2019-03-29T11:22:46.314Z,32.86
2019-03-29T11:25:15.758Z,30.88
2019-03-29T11:27:45.015Z,32.18
2019-03-29T11:30:14.578Z,32.00
2019-03-29T11:32:44.124Z,31.61
2019-03-29T11:35:13.514Z,30.39
2019-03-29T11:37:43.067Z,30.91
2019-03-29T11:40:14.037Z,31.24
2019-03-29T11:42:43.362Z,30.56
2019-03-29T11:45:13.600Z,29.94
2019-03-29T11:47:42.905Z,31.88
2019-03-29T11:50:12.503Z,31.79
2019-03-29T11:52:43.018Z,31.92
2019-03-29T11:55:12.437Z,32.06
2019-03-29T11:57:41.796Z,32.02
2019-03-29T12:00:11.391Z,31.72
2019-03-29T12:02:40.909Z,31.59
2019-03-29T12:05:10.412Z,31.93
2019-03-29T12:07:40.395Z,32.72
2019-03-29T12:10:10.167Z,32.61
2019-03-29T12:12:40.016Z,32.69
2019-03-29T12:15:09.714Z,30.67
2019-03-29T12:17:39.788Z,32.46
2019-03-29T12:20:09.618Z,32.21
2019-03-29T12:22:40.124Z,33.25
2019-03-29T12:25:09.502Z,32.48
2019-03-29T12:27:40.057Z,31.39
2019-03-29T12:30:10.211Z,30.91
2019-03-29T12:32:39.801Z,30.09
2019-03-29T12:35:10.228Z,28.27
2019-03-29T12:37:39.567Z,28.14
2019-03-29T12:40:09.440Z,27.72
2019-03-29T12:42:38.622Z,26.93
2019-03-29T12:45:09.017Z,27.04
2019-03-29T12:47:38.228Z,26.78
2019-03-29T12:50:08.563Z,25.38
2019-03-29T12:52:38.231Z,26.84
2019-03-29T12:55:08.293Z,25.89
2019-03-29T12:57:39.086Z,23.89
2019-03-29T13:00:09.978Z,25.63
2019-03-29T13:02:39.381Z,25.44
2019-03-29T13:05:08.834Z,24.73
2019-03-29T13:07:38.273Z,25.50
2019-03-29T13:10:08.134Z,24.93
2019-03-29T13:12:37.461Z,25.50
2019-03-29T13:15:06.973Z,23.46
2019-03-29T13:17:36.750Z,25.05
2019-03-29T13:20:06.843Z,24.95
2019-03-29T13:22:36.262Z,24.67
2019-03-29T13:25:07.521Z,25.72
2019-03-29T13:27:37.990Z,25.68
2019-03-29T13:30:08.367Z,24.87
2019-03-29T13:32:37.816Z,26.15
2019-03-29T13:35:08.000Z,25.11
2019-03-29T13:37:37.437Z,25.73
2019-03-29T13:40:08.566Z,24.85
2019-03-29T13:42:37.843Z,24.94
2019-03-29T13:45:07.563Z,25.17
2019-03-29T13:47:36.984Z,25.85
2019-03-29T13:50:08.129Z,24.94
2019-03-29T13:52:38.390Z,24.00
2019-03-29T13:55:08.448Z,24.23
2019-03-29T13:57:37.845Z,25.54
2019-03-29T14:00:08.782Z,24.59
2019-03-29T14:02:38.327Z,25.08
2019-03-29T14:05:10.692Z,24.84
2019-03-29T14:07:39.964Z,25.45
2019-03-29T14:10:10.345Z,24.04
2019-03-29T14:12:39.888Z,25.00
2019-03-29T14:15:10.419Z,25.14
2019-03-29T14:17:40.168Z,24.69
2019-03-29T14:20:11.185Z,25.43
2019-03-29T14:22:40.417Z,25.64
2019-03-29T14:25:10.203Z,24.36
2019-03-29T14:27:42.364Z,24.43
2019-03-29T14:30:15.546Z,23.70
2019-03-29T14:32:46.895Z,23.67
2019-03-29T14:35:17.686Z,23.35
2019-03-29T14:37:47.211Z,23.69
2019-03-29T14:40:17.002Z,24.27
2019-03-29T14:42:47.064Z,23.15
2019-03-29T14:45:16.618Z,24.23
2019-03-29T14:47:46.015Z,24.50
2019-03-29T14:50:16.166Z,23.76
2019-03-29T14:52:45.488Z,23.84
2019-03-29T14:55:14.986Z,23.24
2019-03-29T14:57:44.526Z,23.64
2019-03-29T15:00:15.186Z,23.58
2019-03-29T15:02:44.523Z,23.24
2019-03-29T15:05:14.172Z,23.09
2019-03-29T15:07:44.750Z,23.34
2019-03-29T15:10:30.785Z,23.47
2019-03-29T15:13:01.006Z,23.65
2019-03-29T15:15:31.225Z,24.52
2019-03-29T15:18:03.707Z,24.42
2019-03-29T15:20:33.305Z,24.48
2019-03-29T15:23:02.914Z,24.27
2019-03-29T15:25:32.788Z,23.87
2019-03-29T15:28:02.188Z,23.30
2019-03-29T15:30:31.913Z,24.77
2019-03-29T15:33:01.674Z,23.35
2019-03-29T15:35:31.598Z,24.14
2019-03-29T15:38:01.233Z,23.92
2019-03-29T15:40:31.643Z,23.81
2019-03-29T15:43:01.899Z,24.55
2019-03-29T15:45:31.573Z,23.84
2019-03-29T15:48:06.251Z,24.62
2019-03-29T15:50:35.871Z,22.81
2019-03-29T15:53:06.720Z,23.51
2019-03-29T15:55:36.160Z,24.19
2019-03-29T15:58:08.035Z,23.95
2019-03-29T16:00:37.398Z,24.43
2019-03-29T16:03:07.297Z,23.56
2019-03-29T16:05:37.732Z,23.86
2019-03-29T16:08:07.281Z,23.77
2019-03-29T16:10:37.082Z,23.85
2019-03-29T16:13:06.944Z,24.15
2019-03-29T16:15:38.513Z,24.05
2019-03-29T16:18:08.235Z,24.08
2019-03-29T16:20:38.076Z,23.27
2019-03-29T16:23:07.783Z,23.27
2019-03-29T16:25:37.141Z,23.15
2019-03-29T16:28:06.469Z,23.58
2019-03-29T16:30:36.261Z,23.01
2019-03-29T16:33:05.644Z,22.95
2019-03-29T16:35:34.961Z,22.39
2019-03-29T16:38:14.609Z,22.96
2019-03-29T16:40:43.915Z,23.22
2019-03-29T16:43:13.281Z,23.20
2019-03-29T16:45:48.105Z,22.80
2019-03-29T16:48:17.203Z,23.28
2019-03-29T16:50:47.666Z,23.18
2019-03-29T16:53:16.926Z,22.75
2019-03-29T16:55:47.571Z,23.28
2019-03-29T16:58:17.070Z,24.15
2019-03-29T17:00:46.396Z,23.52
2019-03-29T17:03:16.007Z,23.58
2019-03-29T17:05:45.423Z,22.16
2019-03-29T17:08:14.879Z,23.22
2019-03-29T17:10:44.262Z,23.37
2019-03-29T17:13:13.630Z,22.97
2019-03-29T17:15:43.252Z,23.40
2019-03-29T17:18:12.619Z,22.83
2019-03-29T17:20:42.183Z,22.94
2019-03-29T17:23:11.684Z,22.99
2019-03-29T17:25:41.293Z,22.85
2019-03-29T17:28:11.960Z,22.48
2019-03-29T17:30:49.852Z,22.94
2019-03-29T17:33:22.299Z,22.65
2019-03-29T17:35:50.511Z,22.70
2019-03-29T17:38:19.788Z,22.32
2019-03-29T17:40:51.538Z,21.94
2019-03-29T17:43:21.089Z,21.79
2019-03-29T17:45:50.435Z,22.03
2019-03-29T17:48:20.559Z,21.56
2019-03-29T17:50:50.228Z,21.77
2019-03-29T17:53:19.671Z,21.39
2019-03-29T17:55:48.972Z,21.11
2019-03-29T17:58:18.303Z,20.56
2019-03-29T18:00:47.789Z,20.46
2019-03-29T18:03:17.404Z,20.23
2019-03-29T18:05:48.100Z,20.01
2019-03-29T18:08:17.414Z,20.47
2019-03-29T18:10:47.658Z,20.23
2019-03-29T18:13:17.225Z,20.08
2019-03-29T18:15:47.131Z,19.85
2019-03-29T18:18:16.593Z,19.45
2019-03-29T18:20:46.183Z,19.66
2019-03-29T18:23:15.687Z,19.38
2019-03-29T18:25:45.015Z,18.92
2019-03-29T18:28:14.590Z,19.20
2019-03-29T18:30:44.504Z,19.20
2019-03-29T18:33:15.290Z,19.39
2019-03-29T18:35:45.454Z,18.97
2019-03-29T18:38:15.564Z,19.03
2019-03-29T18:40:44.875Z,18.70
2019-03-29T18:43:15.650Z,18.74
2019-03-29T18:45:45.230Z,18.27
2019-03-29T18:48:15.195Z,18.62
2019-03-29T18:50:45.501Z,18.30
2019-03-29T18:53:15.750Z,18.01
2019-03-29T18:55:45.113Z,17.97
2019-03-29T18:58:14.549Z,17.94
2019-03-29T19:00:43.907Z,17.97
2019-03-29T19:03:13.172Z,17.48
2019-03-29T19:05:42.528Z,17.52
2019-03-29T19:08:11.958Z,18.13
2019-03-29T19:10:43.939Z,17.75
2019-03-29T19:13:13.602Z,17.55
2019-03-29T19:15:43.834Z,18.00
2019-03-29T19:18:13.216Z,17.49
2019-03-29T19:20:42.836Z,17.67
2019-03-29T19:23:12.154Z,17.50
2019-03-29T19:25:42.357Z,17.21
2019-03-29T19:28:11.618Z,17.21
2019-03-29T19:30:41.423Z,17.06
2019-03-29T19:33:10.692Z,17.07
2019-03-29T19:35:40.003Z,17.35
2019-03-29T19:38:09.781Z,16.67
2019-03-29T19:40:39.491Z,16.67
2019-03-29T19:43:10.218Z,16.65
2019-03-29T19:45:39.519Z,16.65
2019-03-29T19:48:09.063Z,16.74
2019-03-29T19:50:38.584Z,16.27
2019-03-29T19:53:07.985Z,16.27
2019-03-29T19:55:37.666Z,15.87
2019-03-29T19:58:07.530Z,16.20
2019-03-29T20:00:38.595Z,16.20
2019-03-29T20:03:08.300Z,16.15
2019-03-29T20:05:37.730Z,16.15
2019-03-29T20:08:07.299Z,16.33
2019-03-29T20:10:37.052Z,15.91
2019-03-29T20:13:06.384Z,16.40
2019-03-29T20:15:35.651Z,15.41
2019-03-29T20:18:05.216Z,16.14
2019-03-29T20:20:35.317Z,16.15
2019-03-29T20:23:10.847Z,16.15
2019-03-29T20:25:40.079Z,15.73
2019-03-29T20:28:11.004Z,16.00
2019-03-29T20:30:40.320Z,15.83
2019-03-29T20:33:13.048Z,15.86
2019-03-29T20:35:40.506Z,15.56
2019-03-29T20:38:09.705Z,15.50
2019-03-29T20:40:38.961Z,15.14
2019-03-29T20:43:08.254Z,15.50
2019-03-29T20:45:38.466Z,15.04
2019-03-29T20:48:07.655Z,15.67
2019-03-29T20:50:36.958Z,15.47
2019-03-29T20:53:06.316Z,15.04
2019-03-29T20:55:36.757Z,14.99
2019-03-29T20:58:06.031Z,14.86
2019-03-29T21:00:35.322Z,15.67
2019-03-29T21:03:05.110Z,15.33
2019-03-29T21:05:34.360Z,15.78
2019-03-29T21:08:03.690Z,15.21
2019-03-29T21:10:32.827Z,14.49
2019-03-29T21:13:02.330Z,13.86
2019-03-29T21:15:31.909Z,14.42
2019-03-29T21:18:01.123Z,14.09
2019-03-29T21:20:30.306Z,14.47
2019-03-29T21:23:00.563Z,14.31
2019-03-29T21:25:30.067Z,15.17
2019-03-29T21:27:59.275Z,14.21
2019-03-29T21:30:28.513Z,14.65
2019-03-29T21:32:58.408Z,14.32
2019-03-29T21:35:27.856Z,14.39
2019-03-29T21:37:57.148Z,14.18
2019-03-29T21:40:26.327Z,14.18
2019-03-29T21:42:57.219Z,14.34
2019-03-29T21:45:29.061Z,14.67
2019-03-29T21:48:08.443Z,14.29
2019-03-29T21:50:28.626Z,14.30
2019-03-29T21:52:57.870Z,14.52
2019-03-29T21:55:27.063Z,14.47
2019-03-29T21:57:56.355Z,14.31
2019-03-29T22:00:27.813Z,14.04
2019-03-29T22:02:57.057Z,14.27
2019-03-29T22:05:27.243Z,13.77
2019-03-29T22:07:56.435Z,14.18
2019-03-29T22:10:25.591Z,14.13
2019-03-29T22:12:55.446Z,14.42
2019-03-29T22:15:24.970Z,14.13
2019-03-29T22:17:54.297Z,13.71
2019-03-29T22:20:23.549Z,13.96
2019-03-29T22:22:52.762Z,13.57
2019-03-29T22:25:22.174Z,14.05
2019-03-29T22:27:51.393Z,13.87
2019-03-29T22:30:22.046Z,14.01
2019-03-29T22:32:51.841Z,14.06
2019-03-29T22:35:21.150Z,14.24
2019-03-29T22:37:50.336Z,13.44
2019-03-29T22:40:20.236Z,14.05
2019-03-29T22:42:49.467Z,13.67
2019-03-29T22:45:18.753Z,13.41
2019-03-29T22:47:49.917Z,13.35
2019-03-29T22:50:19.474Z,13.72
2019-03-29T22:52:48.973Z,13.38
2019-03-29T22:55:18.275Z,13.58
2019-03-29T22:57:47.441Z,13.55
2019-03-29T23:00:22.825Z,13.43
2019-03-29T23:02:53.007Z,13.42
2019-03-29T23:05:22.410Z,13.57
2019-03-29T23:07:51.878Z,13.50
2019-03-29T23:10:21.032Z,13.59
2019-03-29T23:12:50.234Z,13.23
2019-03-29T23:15:19.470Z,13.52
2019-03-29T23:17:49.395Z,12.75
2019-03-29T23:20:18.686Z,12.90
2019-03-29T23:22:47.882Z,13.46
2019-03-29T23:25:21.312Z,13.70
2019-03-29T23:27:50.550Z,12.73
2019-03-29T23:30:19.873Z,13.16
2019-03-29T23:32:49.633Z,13.09
2019-03-29T23:35:19.132Z,13.02
2019-03-29T23:37:48.276Z,12.70
2019-03-29T23:40:17.534Z,12.94
2019-03-29T23:42:47.214Z,12.95
2019-03-29T23:45:16.388Z,12.41
2019-03-29T23:47:45.977Z,12.47
2019-03-29T23:50:15.327Z,13.00
2019-03-29T23:52:44.501Z,12.49
2019-03-29T23:55:13.700Z,13.04
2019-03-29T23:57:42.954Z,13.05
